Aérodrome :
LOGIN :

S'inscrire | Disclaimer

   EN    FR    IT 

 










Légende :    VFR   VFR Marginal   IFR   IFR Intensif   IFR Très Intensif
Visi : 
Plafond : 
>= 8 km
>= 3000ft
5 à 8 km
1000 à 3000 ft
1500m à 5 km
500 à 1000 ft
800 à 1500m
200 à 500 ft
< 800m
< 200 ft
Symboles :   Orages  Brouillard  Fortes neiges  Fortes précipitations  Vent > 20 kt
SIGMETs :   Divers  Orages  Givrage  Turbulence  Onde Orograph.  Cendres Volcan.







- Altitude de l'aérodrome : 17 ft
- Code IATA : MPL
- Voir les cartes d'approche


LFMT - Montpellier Méditerranée

DERNIER METAR :
  • 230230Z AUTO 36004KT 340V060 CAVOK 23/20 Q1017 NOSIG

METARs EXPIRÉS :
  • 230200Z AUTO 34005KT CAVOK 23/20 Q1017 NOSIG
  • 230130Z AUTO VRB02KT CAVOK 23/20 Q1017 NOSIG
  • 230100Z AUTO 35005KT CAVOK 23/20 Q1017 NOSIG
  • 230030Z AUTO 33004KT CAVOK 24/21 Q1017 NOSIG
  • 230000Z AUTO 27004KT CAVOK 24/20 Q1017 NOSIG

TAF TAF LFMT
Valide du 23 à 03h jusqu'au 24 à 03h UTC


230200Z 2303/2403 VRB02KT CAVOK
BECMG 2311/2313 28012KT
ATIS : +33 4 67 13 11 70
Pas de NOTAMs connus pour ce terrain.



MET'MAP, la Météo Aéronautique d'un coup d'oeil ! - Copyright ORBIFLY Décembre 2007 - Disclaimer

ORBIFLY MET'MAP TEAM :

Programmation & Développement : Alexandra Zaïnal
Conception & Développement : Baudouin d'Aumeries
Co-Programmation & Développement : Marc-Olivier Méhu
Soutien technique & logistique : Manuel Goepfert

Contact : metmap@orbifly.com




SOURCES & CREDITS :

   NOAA